Time;durP1;ratioP1;P1;durP2;ratioP2;P2;SDS_P1;SDS_P2;PMS_P1;PMS_P2;Temp;Humidity;BMP_temperature;BMP_pressure;BME280_temperature;BME280_humidity;BME280_pressure;Samples;Min_cycle;Max_cycle;Signal;HPM_P1;HPM_P2
2023/05/29 03:07:27;;;;;;;0.55;0.55;;;;;;;15.13;100.00;99773.94;6119879;23;20456;-89
2023/05/29 03:09:56;;;;;;;0.40;0.40;;;;;;;15.11;100.00;99759.69;6071933;23;20017;-89
2023/05/29 03:12:22;;;;;;;0.98;0.98;;;;;;;15.11;100.00;99771.63;6095408;23;20014;-89
2023/05/29 03:14:48;;;;;;;1.20;0.75;;;;;;;14.96;100.00;99754.03;6070479;23;20519;-89
2023/05/29 03:17:13;;;;;;;1.05;0.95;;;;;;;14.91;100.00;99746.28;6069736;23;20068;-88
2023/05/29 03:19:39;;;;;;;1.27;1.17;;;;;;;15.05;100.00;99772.72;6070759;23;20085;-88
2023/05/29 03:22:05;;;;;;;2.15;1.73;;;;;;;15.03;100.00;99772.44;6070660;23;20014;-89
2023/05/29 03:24:34;;;;;;;5.68;1.20;;;;;;;14.98;100.00;99781.47;6071868;23;20049;-89
2023/05/29 03:27:03;;;;;;;0.45;0.45;;;;;;;14.96;100.00;99795.16;6071385;23;20010;-89
2023/05/29 03:29:31;;;;;;;3.78;0.75;;;;;;;14.76;100.00;99768.53;6072278;23;20063;-89
2023/05/29 03:31:57;;;;;;;1.65;1.10;;;;;;;14.73;100.00;99766.69;6069966;23;20025;-88
2023/05/29 03:34:28;;;;;;;2.58;1.08;;;;;;;14.83;100.00;99782.16;6072608;23;20017;-90
2023/05/29 03:36:56;;;;;;;2.75;0.90;;;;;;;14.87;100.00;99796.75;6071566;23;20329;-89
2023/05/29 03:39:23;;;;;;;2.00;1.90;;;;;;;14.67;100.00;99759.44;6070974;23;20192;-89
2023/05/29 03:41:49;;;;;;;2.80;1.17;;;;;;;14.70;100.00;99764.84;6071439;23;20101;-89
2023/05/29 03:44:15;;;;;;;2.17;2.00;;;;;;;14.89;100.00;99807.41;6070292;23;20025;-88
2023/05/29 03:46:42;;;;;;;2.97;1.08;;;;;;;14.66;100.00;99781.00;6070049;23;20010;-89
2023/05/29 03:49:08;;;;;;;1.38;1.23;;;;;;;14.87;100.00;99810.69;6094210;23;20010;-89
2023/05/29 03:51:35;;;;;;;13.75;1.00;;;;;;;14.83;100.00;99807.31;6071469;23;20034;-90
2023/05/29 03:54:01;;;;;;;2.22;1.60;;;;;;;14.82;100.00;99805.75;6070068;23;20014;-89
2023/05/29 03:56:27;;;;;;;1.67;1.58;;;;;;;14.58;100.00;99777.00;6094117;23;20010;-90
2023/05/29 03:58:55;;;;;;;0.93;0.60;;;;;;;14.83;100.00;99810.09;6094445;23;20022;-90
2023/05/29 04:01:20;;;;;;;1.25;0.93;;;;;;;14.84;100.00;99813.66;6069555;23;20571;-90
2023/05/29 04:03:46;;;;;;;1.20;0.98;;;;;;;14.73;100.00;99793.81;6099468;23;20101;-90
2023/05/29 04:06:13;;;;;;;0.40;0.40;;;;;;;14.57;100.00;99761.47;6123649;23;20018;-90
2023/05/29 04:08:39;;;;;;;2.35;0.98;;;;;;;14.84;100.00;99802.50;6125737;23;20017;-91
2023/05/29 04:11:04;;;;;;;1.45;1.35;;;;;;;14.73;100.00;99802.97;6100937;23;20072;-90
2023/05/29 04:13:30;;;;;;;0.68;0.68;;;;;;;14.51;100.00;99768.97;6125330;23;20478;-90
2023/05/29 04:15:56;;;;;;;0.52;0.52;;;;;;;14.71;100.00;99794.31;6100715;23;20049;-90
2023/05/29 04:18:21;;;;;;;1.13;1.05;;;;;;;14.68;100.00;99789.66;6124235;23;20032;-90
2023/05/29 04:20:48;;;;;;;1.55;1.00;;;;;;;14.55;100.00;99763.97;6125147;23;20341;-89
2023/05/29 04:23:14;;;;;;;0.77;0.55;;;;;;;14.82;100.00;99805.75;6124035;23;20010;-95
2023/05/29 04:25:40;;;;;;;0.73;0.73;;;;;;;14.59;100.00;99767.38;6132915;23;20002;-95
2023/05/29 04:28:10;;;;;;;0.90;0.90;;;;;;;14.99;100.00;99814.53;6152474;23;20009;-95
2023/05/29 04:30:39;;;;;;;2.05;1.38;;;;;;;14.67;100.00;99765.78;6150650;23;20013;-95
2023/05/29 04:33:05;;;;;;;1.30;0.75;;;;;;;14.66;100.00;99758.66;6152814;23;20025;-95
2023/05/29 04:35:34;;;;;;;0.25;0.25;;;;;;;15.10;100.00;99819.59;6156006;23;20012;-95
2023/05/29 04:38:05;;;;;;;0.90;0.80;;;;;;;15.15;100.00;99824.53;6131383;23;20017;-95
2023/05/29 04:40:33;;;;;;;1.17;0.93;;;;;;;15.10;100.00;99811.19;6122556;23;20062;-90
2023/05/29 04:43:02;;;;;;;0.70;0.45;;;;;;;14.91;100.00;99783.38;6100741;23;20020;-90
2023/05/29 04:45:38;;;;;;;0.75;0.75;;;;;;;14.95;100.00;99786.00;6127303;23;20455;-90
2023/05/29 04:48:04;;;;;;;4.30;0.80;;;;;;;15.20;100.00;99821.09;6123301;23;20024;-90
2023/05/29 04:50:31;;;;;;;0.30;0.30;;;;;;;15.23;100.00;99806.19;6124403;23;20017;-89
2023/05/29 04:52:58;;;;;;;0.60;0.52;;;;;;;15.31;100.00;99810.94;6099637;23;20436;-91
2023/05/29 04:55:23;;;;;;;1.42;1.17;;;;;;;15.16;100.00;99779.38;6123831;23;20018;-89
2023/05/29 04:57:49;;;;;;;1.88;1.27;;;;;;;15.65;100.00;99836.84;6124322;23;20006;-89
2023/05/29 05:00:17;;;;;;;2.92;1.45;;;;;;;15.63;100.00;99828.94;6098928;23;20033;-90
2023/05/29 05:02:44;;;;;;;0.17;0.17;;;;;;;15.54;100.00;99806.63;6098930;23;20013;-89
2023/05/29 05:05:11;;;;;;;1.40;1.30;;;;;;;15.84;100.00;99830.66;6099283;23;20522;-90
2023/05/29 05:07:37;;;;;;;1.17;1.08;;;;;;;15.70;100.00;99795.00;6097241;23;20107;-90
2023/05/29 05:10:04;;;;;;;1.17;0.57;;;;;;;16.16;100.00;99848.56;6124524;23;20352;-91
2023/05/29 05:12:30;;;;;;;0.90;0.90;;;;;;;16.23;100.00;99847.41;6101224;23;20008;-89
2023/05/29 05:14:56;;;;;;;3.83;1.05;;;;;;;16.23;100.00;99816.63;6099578;23;20017;-89
2023/05/29 05:17:21;;;;;;;1.00;0.98;;;;;;;16.41;100.00;99830.44;6123274;23;20021;-90
2023/05/29 05:19:49;;;;;;;0.73;0.70;;;;;;;16.61;100.00;99827.00;6100557;23;20016;-89
2023/05/29 05:22:16;;;;;;;1.25;0.82;;;;;;;16.76;100.00;99836.94;6124236;23;20018;-90
2023/05/29 05:24:41;;;;;;;0.40;0.40;;;;;;;16.82;100.00;99825.84;6100796;23;20087;-90
2023/05/29 05:27:07;;;;;;;0.47;0.47;;;;;;;16.89;100.00;99816.25;6124397;23;20017;-90
2023/05/29 05:29:33;;;;;;;1.13;1.00;;;;;;;17.07;100.00;99838.41;6096861;23;20037;-90
2023/05/29 05:31:59;;;;;;;0.98;0.88;;;;;;;16.97;100.00;99812.56;6146850;23;20329;-90
2023/05/29 05:34:25;;;;;;;0.82;0.80;;;;;;;17.17;100.00;99848.28;6148987;23;20373;-90
2023/05/29 05:36:50;;;;;;;1.73;1.63;;;;;;;16.92;100.00;99806.88;6150399;23;20041;-90
2023/05/29 05:39:16;;;;;;;0.80;0.80;;;;;;;17.13;100.00;99844.91;6147907;23;20021;-90
2023/05/29 05:41:45;;;;;;;1.35;0.90;;;;;;;16.98;100.00;99839.34;6100117;23;20040;-90
2023/05/29 05:44:14;;;;;;;0.98;0.98;;;;;;;17.16;100.00;99863.53;6146778;23;20009;-90
2023/05/29 05:46:50;;;;;;;0.75;0.75;;;;;;;17.00;100.00;99834.00;6146690;23;20452;-90
2023/05/29 05:49:17;;;;;;;0.10;0.10;;;;;;;17.21;100.00;99874.06;6122395;23;20483;-90
2023/05/29 05:51:42;;;;;;;0.30;0.30;;;;;;;17.23;100.00;99868.72;6146718;23;20009;-89
2023/05/29 05:54:08;;;;;;;0.70;0.60;;;;;;;17.22;100.00;99882.00;6122080;23;20014;-90
2023/05/29 05:56:35;;;;;;;0.85;0.77;;;;;;;17.08;100.00;99859.59;6122521;23;20471;-90
2023/05/29 05:59:00;;;;;;;0.88;0.77;;;;;;;17.09;100.00;99858.34;6149345;23;20025;-90
2023/05/29 06:01:27;;;;;;;0.80;0.80;;;;;;;17.12;100.00;99865.78;6123802;23;20788;-90
2023/05/29 06:03:53;;;;;;;0.70;0.70;;;;;;;16.99;100.00;99834.47;6148227;23;20095;-91
2023/05/29 06:06:19;;;;;;;2.33;1.33;;;;;;;17.23;100.00;99865.94;6148849;23;20027;-88
2023/05/29 06:08:45;;;;;;;1.20;0.55;;;;;;;17.13;100.00;99840.06;6100322;23;20024;-90
2023/05/29 06:11:11;;;;;;;1.17;1.05;;;;;;;17.25;100.00;99835.41;6100203;23;20009;-90
2023/05/29 06:13:39;;;;;;;0.30;0.30;;;;;;;17.45;100.00;99854.28;6148711;23;20018;-90
2023/05/29 06:16:09;;;;;;;0.95;0.65;;;;;;;17.48;100.00;99848.47;6148275;23;20009;-90
2023/05/29 06:18:35;;;;;;;0.68;0.68;;;;;;;17.75;100.00;99877.44;6148263;23;20108;-89
2023/05/29 06:21:02;;;;;;;0.77;0.70;;;;;;;17.90;100.00;99884.50;6147907;23;20018;-90
2023/05/29 06:23:28;;;;;;;1.13;0.98;;;;;;;17.90;99.71;99855.69;6099472;23;20009;-89
2023/05/29 06:25:54;;;;;;;0.47;0.47;;;;;;;18.46;98.57;99882.34;6075859;23;20023;-89
2023/05/29 06:28:20;;;;;;;0.20;0.20;;;;;;;18.54;93.27;99849.75;6145976;23;20010;-89
2023/05/29 06:30:46;;;;;;;0.52;0.52;;;;;;;18.99;91.52;99859.34;6123695;23;20412;-89
2023/05/29 06:33:12;;;;;;;1.25;1.15;;;;;;;19.46;87.09;99891.66;6122978;23;20033;-89
2023/05/29 06:35:39;;;;;;;1.25;0.65;;;;;;;19.63;81.40;99898.19;6148719;23;20017;-89
2023/05/29 06:38:05;;;;;;;0.73;0.73;;;;;;;19.50;nan;99856.41;6123889;23;20020;-89
2023/05/29 06:40:31;;;;;;;1.13;0.68;;;;;;;19.69;77.27;99867.28;6148847;23;20432;-89
2023/05/29 06:42:57;;;;;;;0.45;0.45;;;;;;;19.77;77.32;99862.69;6148533;23;20017;-88
2023/05/29 06:45:36;;;;;;;1.17;0.77;;;;;;;19.96;76.63;99894.78;6125971;23;20088;-89
2023/05/29 06:48:02;;;;;;;0.30;0.30;;;;;;;19.93;77.72;99868.41;6122935;23;20520;-88
2023/05/29 06:50:27;;;;;;;0.40;0.40;;;;;;;20.00;76.29;99851.03;6123492;23;20017;-89
2023/05/29 06:52:57;;;;;;;0.65;0.65;;;;;;;20.11;77.57;99867.19;6147599;23;20333;-89
2023/05/29 06:55:27;;;;;;;0.13;0.13;;;;;;;20.31;76.66;99886.72;6148605;23;20060;-89
2023/05/29 06:57:56;;;;;;;0.30;0.30;;;;;;;20.42;76.68;99869.84;6123380;23;20017;-89
2023/05/29 07:00:24;;;;;;;1.23;0.93;;;;;;;20.64;71.86;99882.44;6121009;23;20029;-90
2023/05/29 07:03:10;;;;;;;1.40;0.73;;;;;;;20.39;71.36;99893.41;6148048;23;20019;-89
2023/05/29 07:05:36;;;;;;;0.88;0.80;;;;;;;20.43;73.28;99902.38;6148461;23;20093;-89
2023/05/29 07:08:01;;;;;;;0.20;0.20;;;;;;;20.38;73.55;99897.50;6148966;23;20056;-89
2023/05/29 07:10:27;;;;;;;0.75;0.63;;;;;;;20.46;72.93;99915.44;6120773;23;20020;-89
2023/05/29 07:12:53;;;;;;;0.43;0.43;;;;;;;20.55;72.96;99916.50;6145699;23;20325;-89
2023/05/29 07:15:20;;;;;;;1.02;0.93;;;;;;;20.74;72.93;99914.75;6122699;23;20041;-90
2023/05/29 07:17:45;;;;;;;2.60;2.13;;;;;;;21.04;72.32;99907.34;6147653;23;20017;-89
2023/05/29 07:20:20;;;;;;;0.40;0.40;;;;;;;20.88;68.84;99866.59;6124820;23;20049;-90
2023/05/29 07:22:47;;;;;;;0.52;0.52;;;;;;;21.11;68.47;99878.63;6146400;23;20023;-90
2023/05/29 07:25:13;;;;;;;0.70;0.60;;;;;;;21.37;68.64;99870.69;6147599;23;20288;-89
2023/05/29 07:27:38;;;;;;;1.35;1.10;;;;;;;21.88;65.86;99910.09;6120238;23;20080;-90
2023/05/29 07:30:05;;;;;;;0.20;0.20;;;;;;;22.16;64.05;99891.75;6148117;23;20016;-90
2023/05/29 07:32:32;;;;;;;0.57;0.57;;;;;;;22.33;61.40;99872.69;6146198;23;20020;-90
2023/05/29 07:34:58;;;;;;;4.85;1.67;;;;;;;22.67;60.03;99900.75;6147263;23;20412;-89
2023/05/29 07:37:23;;;;;;;0.60;0.50;;;;;;;22.75;58.91;99896.09;6120742;23;20024;-89
2023/05/29 07:39:49;;;;;;;0.57;0.57;;;;;;;23.13;58.18;99909.16;6148794;23;20017;-89
2023/05/29 07:42:34;;;;;;;0.80;0.80;;;;;;;23.23;58.21;99910.38;6147143;23;20020;-90
2023/05/29 07:45:02;;;;;;;0.60;0.45;;;;;;;23.04;58.07;99918.00;6124854;23;20388;-89
2023/05/29 07:47:27;;;;;;;1.33;0.95;;;;;;;22.76;59.84;99908.94;6125123;23;20009;-89
2023/05/29 07:49:53;;;;;;;1.02;1.00;;;;;;;22.52;60.49;99897.50;6150247;23;20511;-90
2023/05/29 07:52:22;;;;;;;0.90;0.90;;;;;;;22.01;63.80;99887.72;6126154;23;20036;-89
2023/05/29 07:54:48;;;;;;;0.65;0.63;;;;;;;21.93;67.14;99901.63;6125487;23;20440;-89
2023/05/29 07:57:14;;;;;;;1.00;0.90;;;;;;;22.19;66.73;99901.28;6124969;23;20100;-89
2023/05/29 07:59:42;;;;;;;0.40;0.40;;;;;;;22.58;67.09;99910.31;6149247;23;20057;-89
2023/05/29 08:02:08;;;;;;;0.90;0.75;;;;;;;23.13;65.76;99903.50;6125748;23;20013;-94
2023/05/29 08:04:55;;;;;;;1.70;0.80;;;;;;;23.59;59.24;99894.09;6139878;23;20025;-95
2023/05/29 08:07:22;;;;;;;1.30;0.73;;;;;;;23.80;56.56;99873.81;6110525;23;20056;-95
2023/05/29 08:09:49;;;;;;;0.68;0.40;;;;;;;23.74;54.62;99861.78;6135286;23;20017;-95
2023/05/29 08:12:15;;;;;;;0.85;0.55;;;;;;;23.97;51.72;99869.47;6132704;23;20013;-95
2023/05/29 08:14:42;;;;;;;1.05;0.82;;;;;;;24.03;53.87;99873.00;6108813;23;20436;-96
2023/05/29 08:17:08;;;;;;;1.58;1.48;;;;;;;24.31;51.69;99869.81;6135622;23;20013;-95
2023/05/29 08:19:34;;;;;;;0.63;0.60;;;;;;;24.31;52.58;99900.22;6129096;23;20117;-93
2023/05/29 08:22:00;;;;;;;0.60;0.60;;;;;;;24.06;53.90;99866.25;6132384;23;20002;-94
2023/05/29 08:24:27;;;;;;;2.15;1.48;;;;;;;24.16;52.68;99886.53;6133774;23;20079;-95
2023/05/29 08:26:53;;;;;;;0.73;0.50;;;;;;;24.09;52.12;99884.28;6129678;23;20032;-94
2023/05/29 08:29:19;;;;;;;3.85;0.77;;;;;;;24.33;51.33;99886.31;6106201;23;20448;-95
2023/05/29 08:31:45;;;;;;;0.40;0.40;;;;;;;24.42;49.60;99888.75;6160028;23;20328;-94
2023/05/29 08:34:14;;;;;;;1.00;0.75;;;;;;;24.55;50.77;99900.94;6137724;23;20018;-94
2023/05/29 08:36:41;;;;;;;0.82;0.82;;;;;;;24.42;51.87;99866.09;6109691;23;20024;-94
2023/05/29 08:39:07;;;;;;;1.95;1.23;;;;;;;24.68;49.99;99888.88;6110538;23;20036;-92
2023/05/29 08:41:42;;;;;;;0.90;0.85;;;;;;;24.90;50.07;99899.16;6149335;23;20028;-88
2023/05/29 08:44:07;;;;;;;1.15;1.00;;;;;;;24.39;49.12;99884.91;6123048;23;20058;-88
2023/05/29 08:46:33;;;;;;;0.65;0.65;;;;;;;24.36;51.17;99879.56;6148145;23;20092;-91
2023/05/29 08:48:59;;;;;;;3.75;1.08;;;;;;;24.56;50.25;99893.97;6098293;23;20064;-91
2023/05/29 08:51:31;;;;;;;0.82;0.82;;;;;;;24.69;48.44;99913.13;6147259;23;20017;-90
2023/05/29 08:53:56;;;;;;;0.50;0.43;;;;;;;24.89;49.41;99909.75;6123274;23;20027;-91
2023/05/29 08:56:22;;;;;;;1.00;0.57;;;;;;;24.94;49.38;99911.75;6098015;23;20416;-90
2023/05/29 08:58:48;;;;;;;0.90;0.90;;;;;;;24.78;49.35;99886.44;6122710;23;20420;-89
2023/05/29 09:01:14;;;;;;;0.60;0.60;;;;;;;24.59;50.91;99889.28;6123834;23;20140;-89
2023/05/29 09:03:41;;;;;;;0.70;0.70;;;;;;;24.57;52.03;99874.88;6123489;23;20017;-90
2023/05/29 09:06:08;;;;;;;1.60;1.50;;;;;;;24.61;51.34;99900.84;6100163;23;20001;-90
2023/05/29 09:08:34;;;;;;;1.83;1.27;;;;;;;24.45;52.17;99891.28;6148163;23;20093;-90
2023/05/29 09:11:00;;;;;;;1.42;1.08;;;;;;;24.21;51.74;99874.34;6123836;23;20574;-89
2023/05/29 09:13:28;;;;;;;0.82;0.77;;;;;;;24.37;53.13;99898.88;6123659;23;20013;-90
2023/05/29 09:16:00;;;;;;;2.10;1.05;;;;;;;24.56;52.23;99913.81;6099414;23;20017;-89
2023/05/29 09:18:29;;;;;;;1.17;1.07;;;;;;;24.62;53.29;99899.56;6147565;23;20018;-90
2023/05/29 09:20:55;;;;;;;1.60;0.63;;;;;;;24.60;50.17;99885.91;6127971;23;20024;-90
2023/05/29 09:23:21;;;;;;;0.85;0.75;;;;;;;24.90;49.92;99888.59;6099242;23;20021;-89
2023/05/29 09:25:52;;;;;;;1.02;0.75;;;;;;;25.08;49.52;99887.75;6123302;23;20348;-89
2023/05/29 09:28:18;;;;;;;0.75;0.73;;;;;;;25.30;49.06;99897.22;6148301;23;20013;-89
2023/05/29 09:30:45;;;;;;;0.88;0.88;;;;;;;25.15;49.08;99871.41;6121634;23;20018;-90
2023/05/29 09:33:12;;;;;;;0.63;0.63;;;;;;;25.14;50.71;99872.72;6100756;23;20016;-96
2023/05/29 09:35:39;;;;;;;1.10;0.93;;;;;;;25.54;50.89;99905.59;6132855;23;20093;-95
2023/05/29 09:38:06;;;;;;;0.75;0.75;;;;;;;25.56;49.66;99863.19;6138295;23;20010;-96
2023/05/29 09:40:45;;;;;;;0.50;0.50;;;;;;;26.44;49.53;99911.03;6117572;23;20001;-96
2023/05/29 09:43:17;;;;;;;0.40;0.40;;;;;;;26.79;47.14;99901.97;6134701;23;20021;-96
2023/05/29 09:45:45;;;;;;;0.73;0.73;;;;;;;26.59;45.77;99868.53;6132231;23;20068;-96
2023/05/29 09:48:15;;;;;;;0.93;0.80;;;;;;;27.12;45.21;99893.94;6132045;23;20032;-96
2023/05/29 09:50:47;;;;;;;1.73;1.17;;;;;;;27.30;43.62;99893.72;6133434;23;20009;-96
2023/05/29 09:53:24;;;;;;;1.02;0.85;;;;;;;26.96;42.11;99858.13;6111925;23;20083;-95
2023/05/29 09:55:50;;;;;;;2.35;0.70;;;;;;;27.05;42.74;99900.34;6157718;23;20092;-95
2023/05/29 10:03:34;;;;;;;0.85;0.85;;;;;;;26.67;42.26;99877.94;6164847;23;20105;-95
2023/05/29 10:06:02;;;;;;;0.57;0.57;;;;;;;26.67;42.83;99872.22;6118269;23;20014;-95
2023/05/29 10:08:29;;;;;;;1.38;1.10;;;;;;;27.03;43.60;99902.97;6117383;23;20001;-95
2023/05/29 10:11:15;;;;;;;0.60;0.60;;;;;;;27.05;42.81;99880.41;6117611;23;20064;-89
2023/05/29 10:13:48;;;;;;;1.02;1.02;;;;;;;27.18;40.94;99900.25;6123823;23;20035;-90
2023/05/29 10:16:14;;;;;;;0.75;0.75;;;;;;;27.07;41.48;99857.84;6100194;23;20020;-89
2023/05/29 10:18:50;;;;;;;1.13;0.73;;;;;;;26.90;39.43;99856.19;6099811;23;20017;-90
2023/05/29 10:21:16;;;;;;;1.55;1.33;;;;;;;26.77;40.47;99846.94;6101034;23;20013;-90
2023/05/29 10:23:46;;;;;;;0.40;0.40;;;;;;;26.96;41.58;99886.59;6099913;23;20036;-90
2023/05/29 10:26:21;;;;;;;1.17;1.00;;;;;;;27.22;40.82;99878.66;6100131;23;20021;-90
2023/05/29 10:29:01;;;;;;;6.22;1.30;;;;;;;27.61;39.85;99848.41;6100518;23;20017;-90
2023/05/29 10:31:32;;;;;;;0.40;0.40;;;;;;;28.12;39.67;99851.38;6099131;23;20029;-89
2023/05/29 10:34:18;;;;;;;1.27;1.17;;;;;;;28.48;39.00;99846.34;6100817;23;20079;-90
2023/05/29 10:36:56;;;;;;;0.38;0.35;;;;;;;28.36;37.73;99870.84;6101869;23;20028;-89
2023/05/29 10:39:22;;;;;;;0.50;0.50;;;;;;;27.50;38.45;99849.47;6101710;23;20028;-95
2023/05/29 10:41:50;;;;;;;0.70;0.70;;;;;;;26.72;39.15;99828.66;6118713;23;20025;-96
2023/05/29 10:44:31;;;;;;;0.45;0.45;;;;;;;26.77;40.20;99864.75;6121207;23;20096;-95
2023/05/29 10:47:08;;;;;;;1.00;0.63;;;;;;;27.16;38.38;99866.66;6142492;23;20076;-95
2023/05/29 10:49:35;;;;;;;1.17;1.08;;;;;;;27.51;36.49;99833.13;6147247;23;20074;-94
2023/05/29 10:52:06;;;;;;;1.13;1.02;;;;;;;27.83;35.34;99836.38;6099260;23;20040;-96
2023/05/29 10:54:50;;;;;;;0.73;0.57;;;;;;;28.07;34.11;99823.75;6122755;23;20018;-95
2023/05/29 10:57:16;;;;;;;3.38;0.60;;;;;;;28.46;34.11;99823.34;6122470;23;20041;-95
2023/05/29 10:59:44;;;;;;;0.60;0.60;;;;;;;28.47;33.97;99841.25;6144811;23;20075;-95
2023/05/29 11:02:13;;;;;;;0.70;0.70;;;;;;;27.89;34.58;99821.97;6120668;23;20024;-96
2023/05/29 11:04:41;;;;;;;0.47;0.47;;;;;;;28.03;35.21;99831.91;6120287;23;20021;-95
2023/05/29 11:07:08;;;;;;;1.05;0.95;;;;;;;27.85;36.06;99850.06;6109983;23;20021;-94
2023/05/29 11:09:36;;;;;;;0.30;0.30;;;;;;;27.87;33.23;99825.38;6081749;23;20057;-95
2023/05/29 11:12:22;;;;;;;0.50;0.50;;;;;;;28.61;33.99;99862.56;6079027;23;20032;-96
2023/05/29 11:14:53;;;;;;;0.88;0.77;;;;;;;28.60;32.75;99821.84;6079608;23;20009;-96
2023/05/29 11:17:38;;;;;;;1.05;0.95;;;;;;;28.61;32.07;99868.28;6101970;23;20512;-95
2023/05/29 11:20:35;;;;;;;0.35;0.35;;;;;;;28.15;33.43;99861.63;6104597;23;20033;-95
2023/05/29 11:23:03;;;;;;;0.70;0.70;;;;;;;27.47;34.74;99839.19;6101177;23;20028;-96
2023/05/29 11:25:34;;;;;;;1.25;1.15;;;;;;;26.95;35.91;99836.66;6102648;23;20005;-96
2023/05/29 11:28:00;;;;;;;0.85;0.85;;;;;;;26.59;40.95;99836.50;6077558;23;20033;-96
2023/05/29 11:30:26;;;;;;;1.10;1.00;;;;;;;26.00;45.58;99833.13;6077738;23;20168;-95
2023/05/29 11:32:52;;;;;;;1.52;1.02;;;;;;;25.38;48.41;99842.09;6076249;23;20453;-96
2023/05/29 11:35:21;;;;;;;0.80;0.80;;;;;;;24.77;52.93;99865.03;6078859;23;20452;-95
2023/05/29 11:37:50;;;;;;;1.50;1.40;;;;;;;24.09;67.02;99845.38;6108468;23;20070;-95
2023/05/29 11:40:16;;;;;;;4.57;1.45;;;;;;;23.52;85.70;99851.47;6101588;23;20017;-95
2023/05/29 11:42:48;;;;;;;1.58;1.10;;;;;;;22.99;93.20;99862.22;6100957;23;20014;-96
2023/05/29 11:45:21;;;;;;;5.40;1.08;;;;;;;22.54;100.00;99852.50;6077700;23;20424;-96
2023/05/29 11:48:05;;;;;;;0.63;0.60;;;;;;;22.26;100.00;99878.88;6078001;23;20021;-95
2023/05/29 11:50:32;;;;;;;0.68;0.68;;;;;;;22.08;100.00;99871.00;6076543;23;20006;-96
2023/05/29 11:52:58;;;;;;;0.38;0.38;;;;;;;21.91;100.00;99864.66;6075611;23;20017;-95
2023/05/29 11:55:28;;;;;;;0.90;0.90;;;;;;;21.67;100.00;99850.34;6101593;23;20440;-95
2023/05/29 11:58:24;;;;;;;2.95;1.38;;;;;;;21.61;100.00;99872.19;6087637;23;19998;-94
2023/05/29 12:03:52;;;;;;;0.30;0.30;;;;;;;21.62;100.00;99887.81;6136625;23;20030;-96
2023/05/29 12:06:35;;;;;;;0.47;0.47;;;;;;;21.78;100.00;99889.84;6125175;23;20105;-95
2023/05/29 12:09:02;;;;;;;1.25;0.90;;;;;;;21.76;100.00;99887.53;6076421;23;20033;-93
2023/05/29 12:11:27;;;;;;;0.60;0.60;;;;;;;21.90;100.00;99891.34;6100958;23;20018;-94
2023/05/29 12:14:02;;;;;;;0.45;0.45;;;;;;;22.02;100.00;99903.38;6098055;23;20158;-95
2023/05/29 12:16:29;;;;;;;1.95;0.95;;;;;;;22.16;100.00;99911.53;6097948;23;20018;-92
2023/05/29 12:18:55;;;;;;;0.73;0.65;;;;;;;22.30;100.00;99910.47;6125175;23;20022;-94
2023/05/29 12:21:21;;;;;;;0.60;0.60;;;;;;;22.22;100.00;99906.66;6074778;23;20018;-91
2023/05/29 12:23:47;;;;;;;1.45;0.82;;;;;;;22.24;100.00;99898.41;6121219;23;20014;-92
2023/05/29 12:26:15;;;;;;;0.80;0.80;;;;;;;22.40;100.00;99908.13;6100102;23;20021;-96
2023/05/29 12:28:45;;;;;;;1.23;1.13;;;;;;;22.07;90.76;99841.25;6123069;23;20014;-96
2023/05/29 12:31:11;;;;;;;0.45;0.43;;;;;;;22.18;97.97;99858.13;6076662;23;20022;-91
2023/05/29 12:33:36;;;;;;;0.98;0.98;;;;;;;22.27;100.00;99855.00;6098318;23;20073;-95
2023/05/29 12:36:06;;;;;;;1.15;1.15;;;;;;;22.54;92.37;99869.47;6096805;23;20022;-92
2023/05/29 12:38:33;;;;;;;1.52;1.42;;;;;;;22.82;88.94;99886.28;6097125;23;20006;-96
2023/05/29 12:40:59;;;;;;;1.73;1.63;;;;;;;23.09;88.63;99885.31;6098538;23;20012;-96
2023/05/29 12:43:24;;;;;;;0.52;0.50;;;;;;;23.11;77.74;99855.19;6096066;23;20363;-93
2023/05/29 12:45:56;;;;;;;0.85;0.60;;;;;;;23.48;79.76;99882.91;6096751;23;20515;-93
2023/05/29 12:48:26;;;;;;;0.82;0.50;;;;;;;23.33;74.14;99842.13;6120770;23;20013;-92
2023/05/29 12:50:52;;;;;;;0.90;0.70;;;;;;;23.53;72.79;99886.97;6097416;23;20017;-94
2023/05/29 12:53:17;;;;;;;2.88;1.73;;;;;;;23.15;74.19;99872.63;6095058;23;20322;-95
2023/05/29 12:55:44;;;;;;;0.82;0.82;;;;;;;22.97;68.31;99864.81;6097519;23;20018;-96
2023/05/29 12:58:11;;;;;;;0.50;0.50;;;;;;;22.92;65.60;99859.22;6096302;23;20348;-96
2023/05/29 13:00:38;;;;;;;0.85;0.77;;;;;;;22.81;66.82;99865.69;6094862;23;20014;-93
2023/05/29 13:03:04;;;;;;;0.55;0.43;;;;;;;22.91;67.21;99868.97;6095567;23;20041;-95
2023/05/29 13:05:30;;;;;;;8.18;1.00;;;;;;;23.02;68.22;99866.81;6121044;23;20014;-94
2023/05/29 13:07:56;;;;;;;1.38;1.23;;;;;;;23.14;68.37;99885.25;6095910;23;20492;-96
2023/05/29 13:10:22;;;;;;;1.08;0.45;;;;;;;23.09;68.93;99849.28;6121509;23;20018;-95
2023/05/29 13:12:58;;;;;;;0.70;0.68;;;;;;;22.99;67.89;99831.13;6095537;23;20017;-96
2023/05/29 13:15:24;;;;;;;0.70;0.70;;;;;;;23.43;70.31;99880.13;6098728;23;20014;-95
2023/05/29 13:17:50;;;;;;;1.52;0.93;;;;;;;23.41;70.26;99869.31;6071652;23;20030;-90
2023/05/29 13:20:16;;;;;;;1.05;0.95;;;;;;;23.47;72.44;99874.94;6120501;23;20013;-92
2023/05/29 13:22:43;;;;;;;0.30;0.30;;;;;;;23.39;68.29;99840.00;6094329;23;20436;-90
2023/05/29 13:25:10;;;;;;;0.80;0.80;;;;;;;24.09;70.07;99861.59;6094795;23;20065;-90
2023/05/29 13:27:37;;;;;;;0.50;0.50;;;;;;;24.58;62.61;99856.56;6094892;23;20029;-90
2023/05/29 13:30:04;;;;;;;0.63;0.60;;;;;;;24.88;60.40;99867.72;6094436;23;20024;-91
2023/05/29 13:32:29;;;;;;;0.85;0.30;;;;;;;24.61;55.74;99855.47;6118354;23;20013;-91
2023/05/29 13:34:55;;;;;;;0.73;0.60;;;;;;;24.56;56.54;99836.47;6069590;23;20002;-91
2023/05/29 13:37:20;;;;;;;0.52;0.52;;;;;;;24.73;57.48;99834.16;6069908;23;20503;-91
2023/05/29 13:39:46;;;;;;;1.52;0.93;;;;;;;24.79;56.33;99823.47;6117598;23;20134;-89
2023/05/29 13:42:12;;;;;;;1.48;1.38;;;;;;;24.97;56.69;99807.72;6093678;23;20046;-88
2023/05/29 13:44:38;;;;;;;0.60;0.52;;;;;;;25.31;54.52;99841.97;6093873;23;20022;-90
2023/05/29 13:47:04;;;;;;;0.30;0.30;;;;;;;25.33;53.27;99825.16;6069706;23;20378;-91
2023/05/29 13:49:30;;;;;;;1.08;0.77;;;;;;;25.18;51.64;99827.75;6118737;23;20110;-90
2023/05/29 13:51:55;;;;;;;1.13;0.80;;;;;;;25.26;51.83;99795.34;6094667;23;20030;-90
2023/05/29 13:54:22;;;;;;;0.60;0.57;;;;;;;25.65;51.98;99802.34;6125760;23;20037;-95
2023/05/29 13:56:50;;;;;;;0.32;0.30;;;;;;;25.81;50.14;99784.97;6073310;23;20010;-95
2023/05/29 13:59:16;;;;;;;3.10;2.15;;;;;;;26.40;48.23;99799.72;6074741;23;20503;-95
2023/05/29 14:01:42;;;;;;;1.15;0.88;;;;;;;26.63;45.48;99777.94;6073953;23;20010;-96
2023/05/29 14:04:07;;;;;;;1.17;1.08;;;;;;;26.99;45.33;99788.69;6099269;23;20333;-95
2023/05/29 14:06:33;;;;;;;0.75;0.63;;;;;;;26.61;44.35;99780.56;6073026;23;20050;-95
2023/05/29 14:08:59;;;;;;;1.17;1.00;;;;;;;26.92;46.54;99807.25;6121732;23;20029;-96
2023/05/29 14:11:26;;;;;;;0.60;0.60;;;;;;;26.81;47.10;99825.31;6097310;23;20025;-94
2023/05/29 14:13:52;;;;;;;2.40;0.88;;;;;;;26.76;46.79;99789.25;6073468;23;20437;-96
2023/05/29 14:16:18;;;;;;;0.50;0.50;;;;;;;26.82;49.05;99787.00;6096950;23;20014;-94
2023/05/29 14:18:43;;;;;;;0.95;0.85;;;;;;;26.82;44.40;99769.16;6097038;23;20119;-95
2023/05/29 14:21:10;;;;;;;1.27;1.17;;;;;;;26.89;43.93;99780.66;6096879;23;20010;-94
2023/05/29 14:23:36;;;;;;;1.48;1.08;;;;;;;26.84;42.30;99777.97;6096776;23;20029;-96
2023/05/29 14:26:02;;;;;;;0.73;0.73;;;;;;;27.01;41.32;99786.06;6072440;23;20016;-94
2023/05/29 14:28:27;;;;;;;1.23;1.13;;;;;;;27.11;41.36;99807.00;6120039;23;20001;-95
2023/05/29 14:30:53;;;;;;;1.38;1.27;;;;;;;26.94;42.52;99792.44;6096730;23;20013;-94
2023/05/29 14:33:19;;;;;;;1.23;0.98;;;;;;;26.91;43.31;99785.78;6096624;23;20029;-93
2023/05/29 14:35:44;;;;;;;0.52;0.52;;;;;;;26.54;43.97;99760.56;6101006;23;20010;-94
2023/05/29 14:38:10;;;;;;;5.88;1.30;;;;;;;26.82;43.97;99815.47;6103441;23;20045;-95
2023/05/29 14:40:37;;;;;;;1.65;0.60;;;;;;;26.58;44.20;99792.28;6130490;23;20002;-96
2023/05/29 14:43:03;;;;;;;1.38;1.27;;;;;;;26.80;44.04;99788.91;6080663;23;20045;-96
2023/05/29 14:45:28;;;;;;;0.73;0.73;;;;;;;26.77;43.08;99765.16;6104949;23;20057;-96
2023/05/29 14:47:54;;;;;;;1.60;1.17;;;;;;;26.70;42.74;99767.94;6103642;23;20093;-95
2023/05/29 14:50:20;;;;;;;10.75;1.08;;;;;;;26.75;44.06;99759.25;6078471;23;20010;-95